Time;durP1;ratioP1;P1;durP2;ratioP2;P2;SDS_P1;SDS_P2;PMS_P1;PMS_P2;Temp;Humidity;BMP_temperature;BMP_pressure;BME280_temperature;BME280_humidity;BME280_pressure;Samples;Min_cycle;Max_cycle;Signal;HPM_P1;HPM_P2
2022/07/08 00:02:06;;;;;;;9.80;1.63;;;13.90;99.90;;;;;;6188769;23;20012;-69
2022/07/08 00:04:32;;;;;;;4.40;1.10;;;13.90;99.90;;;;;;6188535;23;20020;-70
2022/07/08 00:06:58;;;;;;;4.18;1.30;;;13.90;99.90;;;;;;6215766;23;20052;-69
2022/07/08 00:09:26;;;;;;;11.70;1.15;;;13.90;99.90;;;;;;6215648;23;20532;-70
2022/07/08 00:11:53;;;;;;;5.70;1.00;;;13.90;99.90;;;;;;6215572;23;20042;-69
2022/07/08 00:14:18;;;;;;;5.80;1.60;;;13.90;99.90;;;;;;6216725;23;20315;-69
2022/07/08 00:16:44;;;;;;;4.35;1.00;;;13.80;99.90;;;;;;6190954;23;20024;-68
2022/07/08 00:19:13;;;;;;;3.33;1.13;;;13.80;99.90;;;;;;6217283;23;20028;-69
2022/07/08 00:21:39;;;;;;;3.45;1.00;;;13.80;99.90;;;;;;6190813;23;20020;-70
2022/07/08 00:24:05;;;;;;;6.50;1.00;;;13.80;99.90;;;;;;6190782;23;20088;-69
2022/07/08 00:26:31;;;;;;;;;;;13.80;99.90;;;;;;6217759;23;20016;-69
2022/07/08 00:28:57;;;;;;;6.07;0.98;;;13.80;99.90;;;;;;6217336;23;19922;-69
2022/07/08 00:31:23;;;;;;;5.53;1.38;;;13.80;99.90;;;;;;6217249;23;20346;-69
2022/07/08 00:33:49;;;;;;;4.80;1.10;;;13.70;99.90;;;;;;6190480;23;20021;-68
2022/07/08 00:36:14;;;;;;;7.15;1.40;;;13.80;99.90;;;;;;6217622;23;20024;-70
2022/07/08 00:38:40;;;;;;;7.75;1.73;;;13.80;99.90;;;;;;6216906;23;20016;-69
2022/07/08 00:41:06;;;;;;;8.45;1.33;;;13.80;99.90;;;;;;6217123;23;20325;-69
2022/07/08 00:43:37;;;;;;;4.90;1.13;;;13.80;99.90;;;;;;6216779;23;20027;-70
2022/07/08 00:46:03;;;;;;;4.32;1.25;;;13.80;99.90;;;;;;6217050;23;20020;-70
2022/07/08 00:48:29;;;;;;;5.15;1.38;;;13.70;99.90;;;;;;6217047;23;20124;-69
2022/07/08 00:50:57;;;;;;;4.68;1.27;;;13.70;99.90;;;;;;6217175;23;20040;-70
2022/07/08 00:53:23;;;;;;;5.88;1.10;;;13.70;99.90;;;;;;6217056;23;20017;-69
2022/07/08 00:55:49;;;;;;;3.83;1.02;;;13.70;99.90;;;;;;6190679;23;20043;-70
2022/07/08 00:58:15;;;;;;;3.20;1.00;;;13.70;99.90;;;;;;6217004;23;20126;-69
2022/07/08 01:00:41;;;;;;;5.45;1.20;;;13.70;99.90;;;;;;6216975;23;20422;-70
2022/07/08 01:03:07;;;;;;;3.45;1.15;;;14.00;99.90;;;;;;6190497;23;20020;-69
2022/07/08 01:05:33;;;;;;;5.43;1.33;;;13.60;99.90;;;;;;6190376;23;20056;-69
2022/07/08 01:07:58;;;;;;;3.25;0.93;;;13.60;99.90;;;;;;6216945;23;20029;-70
2022/07/08 01:10:24;;;;;;;5.10;1.50;;;13.60;99.90;;;;;;6217296;23;20464;-68
2022/07/08 01:12:50;;;;;;;3.50;1.20;;;13.60;99.90;;;;;;6189939;23;20385;-70
2022/07/08 01:15:16;;;;;;;6.70;1.38;;;13.60;99.90;;;;;;6217134;23;20092;-70
2022/07/08 01:17:43;;;;;;;9.32;1.02;;;13.50;99.90;;;;;;6216819;23;20121;-69
2022/07/08 01:20:11;;;;;;;8.80;1.52;;;13.60;99.90;;;;;;6216616;23;20031;-69
2022/07/08 01:22:36;;;;;;;7.53;1.55;;;13.50;99.90;;;;;;6189591;23;20013;-69
2022/07/08 01:25:06;;;;;;;4.85;1.40;;;13.50;99.90;;;;;;6216628;23;20068;-69
2022/07/08 01:27:33;;;;;;;5.50;1.17;;;13.40;99.90;;;;;;6190964;23;20017;-69
2022/07/08 01:29:59;;;;;;;8.77;1.50;;;13.40;99.90;;;;;;6216345;23;20458;-69
2022/07/08 01:32:36;;;;;;;10.60;1.60;;;13.40;99.90;;;;;;6216722;23;20009;-70
2022/07/08 01:35:02;;;;;;;3.92;1.40;;;13.30;99.90;;;;;;6216493;23;20385;-70
2022/07/08 01:37:28;;;;;;;7.45;1.20;;;13.30;99.90;;;;;;6216661;23;20096;-69
2022/07/08 01:39:54;;;;;;;8.65;1.40;;;13.80;99.90;;;;;;6189939;23;20051;-70
2022/07/08 01:42:19;;;;;;;10.02;1.33;;;13.20;99.90;;;;;;6216339;23;20021;-69
2022/07/08 01:44:45;;;;;;;4.00;0.95;;;13.20;99.90;;;;;;6216710;23;20044;-69
2022/07/08 01:47:11;;;;;;;6.60;1.30;;;13.30;99.90;;;;;;6216515;23;20055;-69
2022/07/08 01:49:36;;;;;;;6.97;1.85;;;13.20;99.90;;;;;;6216452;23;20023;-69
2022/07/08 01:52:04;;;;;;;9.07;1.98;;;13.10;99.90;;;;;;6216882;23;20059;-69
2022/07/08 01:54:30;;;;;;;3.15;1.33;;;13.10;99.90;;;;;;6216539;23;20150;-70
2022/07/08 01:57:13;;;;;;;6.28;1.50;;;13.00;99.90;;;;;;6216479;23;20465;-69
2022/07/08 01:59:39;;;;;;;6.05;1.50;;;13.00;99.90;;;;;;6168639;23;20449;-70
2022/07/08 02:02:05;;;;;;;5.38;1.35;;;13.10;99.90;;;;;;6189431;23;20016;-70
2022/07/08 02:04:30;;;;;;;3.72;1.42;;;13.00;99.90;;;;;;6216388;23;20023;-69
2022/07/08 02:06:56;;;;;;;5.95;1.40;;;13.00;99.90;;;;;;6216364;23;20027;-69
2022/07/08 02:09:22;;;;;;;6.82;1.42;;;13.00;99.90;;;;;;6216268;23;20028;-69
2022/07/08 02:14:32;;;;;;;8.05;1.50;;;12.90;99.90;;;;;;6216459;23;20052;-69
2022/07/08 02:16:58;;;;;;;6.90;1.67;;;12.90;99.90;;;;;;6216364;23;20447;-71
2022/07/08 02:19:24;;;;;;;5.70;1.30;;;13.10;99.90;;;;;;6216097;23;20017;-69
2022/07/08 02:21:50;;;;;;;8.45;1.38;;;12.80;99.90;;;;;;6216122;23;20096;-70
2022/07/08 02:24:16;;;;;;;;;;;12.70;99.90;;;;;;6216708;23;20020;-70
2022/07/08 02:26:41;;;;;;;6.20;1.40;;;12.70;99.90;;;;;;6216243;23;20003;-69
2022/07/08 02:29:07;;;;;;;5.93;1.65;;;12.60;99.90;;;;;;6216244;23;20019;-69
2022/07/08 02:31:33;;;;;;;2.63;1.60;;;12.60;99.90;;;;;;6189710;23;20091;-70
2022/07/08 02:33:58;;;;;;;4.50;1.13;;;12.50;99.90;;;;;;6216045;23;20027;-70
2022/07/08 02:36:24;;;;;;;5.65;1.40;;;12.50;99.90;;;;;;6215939;23;20016;-70
2022/07/08 02:38:50;;;;;;;7.13;1.90;;;12.50;99.90;;;;;;6189370;23;20304;-69
2022/07/08 02:41:16;;;;;;;5.70;1.35;;;12.50;99.90;;;;;;6189388;23;20021;-70
2022/07/08 02:43:42;;;;;;;5.97;1.52;;;12.50;99.90;;;;;;6215506;23;20016;-70
2022/07/08 02:46:07;;;;;;;8.02;1.70;;;12.50;99.90;;;;;;6189654;23;20027;-69
2022/07/08 02:48:34;;;;;;;7.88;1.70;;;12.50;99.90;;;;;;6189505;23;20024;-71
2022/07/08 02:50:59;;;;;;;;;;;12.60;99.90;;;;;;6189851;23;20074;-69
2022/07/08 02:53:25;;;;;;;8.52;1.92;;;12.50;99.90;;;;;;6215996;23;19947;-71
2022/07/08 02:55:50;;;;;;;8.65;2.00;;;12.50;99.90;;;;;;6215978;23;20078;-69
2022/07/08 02:58:16;;;;;;;3.72;1.40;;;12.60;99.90;;;;;;6189475;23;20020;-69
2022/07/08 03:00:42;;;;;;;12.55;3.47;;;13.60;99.90;;;;;;6215964;23;20021;-69
2022/07/08 03:03:07;;;;;;;9.82;1.58;;;12.60;99.90;;;;;;6215987;23;20021;-69
2022/07/08 03:05:33;;;;;;;10.25;1.95;;;12.70;99.90;;;;;;6189416;23;20023;-69
2022/07/08 03:07:59;;;;;;;7.80;1.33;;;12.50;99.90;;;;;;6215973;23;20028;-70
2022/07/08 03:10:24;;;;;;;5.05;1.40;;;12.50;99.90;;;;;;6215914;23;20020;-70
2022/07/08 03:12:50;;;;;;;3.50;1.27;;;12.50;99.90;;;;;;6215995;23;20013;-69
2022/07/08 03:15:16;;;;;;;6.20;1.60;;;12.70;99.90;;;;;;6216097;23;20017;-69
2022/07/08 03:17:41;;;;;;;11.65;1.73;;;12.40;99.90;;;;;;6215876;23;20017;-69
2022/07/08 03:20:07;;;;;;;4.75;1.40;;;12.40;99.90;;;;;;6215778;23;20020;-69
2022/07/08 03:22:34;;;;;;;3.95;1.65;;;12.40;99.90;;;;;;6215708;23;20017;-68
2022/07/08 03:25:00;;;;;;;11.52;1.75;;;12.30;99.90;;;;;;6215808;23;20024;-68
2022/07/08 03:27:25;;;;;;;7.72;2.05;;;12.50;99.90;;;;;;6215844;23;20020;-69
2022/07/08 03:29:51;;;;;;;5.53;1.30;;;12.30;99.90;;;;;;6215863;23;20024;-69
2022/07/08 03:32:17;;;;;;;3.35;1.30;;;12.30;99.90;;;;;;6216253;23;20017;-69
2022/07/08 03:34:42;;;;;;;6.95;1.77;;;12.40;99.90;;;;;;6215668;23;20017;-70
2022/07/08 03:37:08;;;;;;;5.65;1.70;;;12.20;99.90;;;;;;6215762;23;20012;-69
2022/07/08 03:39:34;;;;;;;2.25;1.02;;;12.10;99.90;;;;;;6215454;23;20020;-68
2022/07/08 03:41:59;;;;;;;10.65;1.42;;;12.00;99.90;;;;;;6188703;23;20023;-68
2022/07/08 03:44:25;;;;;;;6.45;1.60;;;12.10;99.90;;;;;;6189146;23;20027;-69
2022/07/08 03:46:51;;;;;;;5.10;1.73;;;12.00;99.90;;;;;;6215715;23;20096;-69
2022/07/08 03:49:16;;;;;;;2.70;1.50;;;12.60;99.90;;;;;;6216721;23;20404;-69
2022/07/08 03:51:42;;;;;;;11.43;1.95;;;12.20;99.90;;;;;;6217740;23;20091;-69
2022/07/08 03:54:09;;;;;;;5.80;1.63;;;12.00;99.90;;;;;;6217729;23;20028;-69
2022/07/08 03:56:35;;;;;;;6.50;1.65;;;12.00;99.90;;;;;;6190580;23;20016;-69
2022/07/08 03:59:00;;;;;;;7.55;1.88;;;12.10;99.90;;;;;;6217688;23;20437;-69
2022/07/08 04:01:26;;;;;;;7.40;2.33;;;12.10;99.90;;;;;;6217587;23;20016;-69
2022/07/08 04:03:52;;;;;;;2.78;1.50;;;12.10;99.90;;;;;;6217642;23;20023;-69
2022/07/08 04:06:17;;;;;;;8.80;1.50;;;12.10;99.90;;;;;;6217551;23;20017;-69
2022/07/08 04:08:43;;;;;;;12.85;1.90;;;12.10;99.90;;;;;;6217602;23;20087;-69
2022/07/08 04:11:09;;;;;;;6.57;1.67;;;12.20;99.90;;;;;;6217461;23;20017;-68
2022/07/08 04:13:34;;;;;;;3.15;1.40;;;12.10;99.90;;;;;;6190630;23;20028;-71
2022/07/08 04:16:00;;;;;;;8.18;1.73;;;12.10;99.90;;;;;;6217119;23;20083;-69
2022/07/08 04:18:26;;;;;;;4.93;2.05;;;12.00;99.90;;;;;;6217457;23;20063;-70
2022/07/08 04:20:52;;;;;;;7.25;2.13;;;12.00;99.90;;;;;;6217238;23;20020;-68
2022/07/08 04:23:17;;;;;;;10.65;1.98;;;12.00;99.90;;;;;;6217288;23;20017;-69
2022/07/08 04:25:43;;;;;;;6.82;1.42;;;12.00;99.90;;;;;;6217015;23;20028;-70
2022/07/08 04:28:09;;;;;;;2.35;1.27;;;12.10;99.90;;;;;;6216917;23;20020;-69
2022/07/08 04:30:35;;;;;;;11.90;3.83;;;12.20;99.90;;;;;;6217303;23;20016;-68
2022/07/08 04:33:00;;;;;;;5.38;1.52;;;12.10;99.90;;;;;;6217314;23;20017;-69
2022/07/08 04:35:26;;;;;;;8.93;1.80;;;12.10;99.90;;;;;;6217153;23;20020;-69
2022/07/08 04:37:52;;;;;;;7.53;2.30;;;12.10;99.90;;;;;;6217237;23;20016;-68
2022/07/08 04:40:17;;;;;;;6.00;2.00;;;12.20;99.90;;;;;;6190564;23;20055;-69
2022/07/08 04:42:43;;;;;;;6.20;1.73;;;12.30;99.90;;;;;;6216939;23;20023;-69
2022/07/08 04:45:09;;;;;;;7.07;3.65;;;12.30;99.90;;;;;;6217290;23;20017;-69
2022/07/08 04:47:35;;;;;;;9.95;1.77;;;12.40;99.90;;;;;;6190519;23;20106;-68
2022/07/08 04:50:00;;;;;;;4.65;1.85;;;12.50;99.90;;;;;;6217021;23;20020;-70
2022/07/08 04:52:26;;;;;;;8.05;1.90;;;12.50;99.90;;;;;;6217154;23;20079;-69
2022/07/08 04:54:51;;;;;;;7.43;1.83;;;12.80;99.90;;;;;;6217466;23;20028;-69
2022/07/08 04:57:17;;;;;;;4.88;1.80;;;12.90;99.90;;;;;;6190521;23;20442;-69
2022/07/08 04:59:43;;;;;;;7.65;1.67;;;12.70;99.90;;;;;;6216871;23;20021;-69
2022/07/08 05:02:08;;;;;;;8.05;1.98;;;12.80;99.90;;;;;;6216975;23;20347;-69
2022/07/08 05:04:34;;;;;;;6.32;2.35;;;13.70;99.90;;;;;;6217051;23;20465;-70
2022/07/08 05:07:00;;;;;;;9.48;2.03;;;12.80;99.90;;;;;;6216968;23;20063;-70
2022/07/08 05:09:26;;;;;;;4.70;2.40;;;13.60;99.90;;;;;;6217252;23;20020;-71
2022/07/08 05:11:51;;;;;;;5.00;2.30;;;13.00;99.90;;;;;;6216946;23;20434;-69
2022/07/08 05:14:17;;;;;;;9.02;3.00;;;13.00;99.90;;;;;;6216992;23;20027;-69
2022/07/08 05:16:43;;;;;;;7.50;3.20;;;13.10;99.90;;;;;;6190370;23;20016;-69
2022/07/08 05:19:09;;;;;;;8.13;2.33;;;13.10;99.90;;;;;;6216858;23;20020;-68
2022/07/08 05:21:36;;;;;;;8.98;2.42;;;13.10;99.90;;;;;;6190112;23;20016;-69
2022/07/08 05:24:06;;;;;;;6.57;2.33;;;13.10;99.90;;;;;;6216768;23;20028;-70
2022/07/08 05:26:33;;;;;;;9.00;2.08;;;13.20;99.90;;;;;;6190207;23;20020;-68
2022/07/08 05:29:00;;;;;;;6.25;2.28;;;13.20;99.90;;;;;;6189543;23;20354;-69
2022/07/08 05:31:26;;;;;;;4.72;1.98;;;13.30;99.90;;;;;;6190104;23;20021;-69
2022/07/08 05:33:52;;;;;;;;;;;13.30;99.90;;;;;;6217101;23;20017;-68
2022/07/08 05:36:18;;;;;;;7.38;2.55;;;13.30;99.90;;;;;;6216722;23;20225;-69
2022/07/08 05:38:43;;;;;;;6.22;2.47;;;13.40;99.90;;;;;;6216482;23;20374;-69
2022/07/08 05:41:09;;;;;;;6.28;2.38;;;13.50;99.90;;;;;;6216566;23;20083;-69
2022/07/08 05:43:35;;;;;;;6.50;2.08;;;13.50;99.90;;;;;;6216267;23;20052;-67
2022/07/08 05:46:00;;;;;;;5.43;1.80;;;13.60;99.90;;;;;;6216563;23;20121;-69
2022/07/08 05:48:28;;;;;;;10.68;2.78;;;13.70;99.90;;;;;;6190025;23;20083;-68
2022/07/08 05:50:54;;;;;;;5.35;1.67;;;13.80;99.90;;;;;;6216515;23;20016;-69
2022/07/08 05:53:20;;;;;;;9.57;2.10;;;13.80;99.90;;;;;;6216543;23;20129;-69
2022/07/08 05:55:46;;;;;;;9.95;1.60;;;13.90;99.90;;;;;;6190265;23;20024;-69
2022/07/08 05:58:12;;;;;;;14.05;1.92;;;13.90;99.90;;;;;;6216110;23;20331;-69
2022/07/08 06:00:38;;;;;;;11.10;2.45;;;13.90;99.90;;;;;;6216435;23;20059;-71
2022/07/08 06:03:05;;;;;;;10.02;2.28;;;14.00;99.90;;;;;;6216289;23;20008;-70
2022/07/08 06:05:31;;;;;;;5.55;1.48;;;14.00;99.90;;;;;;6216269;23;20022;-70
2022/07/08 06:07:57;;;;;;;8.35;1.83;;;14.10;99.90;;;;;;6216351;23;20027;-69
2022/07/08 06:10:24;;;;;;;6.00;1.65;;;14.10;99.90;;;;;;6215970;23;20457;-70
2022/07/08 06:12:50;;;;;;;8.00;2.03;;;14.20;99.90;;;;;;6215978;23;20017;-70
2022/07/08 06:15:16;;;;;;;5.82;1.70;;;14.20;99.90;;;;;;6189394;23;20016;-70
2022/07/08 06:17:42;;;;;;;8.43;1.92;;;14.30;99.90;;;;;;6216242;23;20099;-69
2022/07/08 06:20:08;;;;;;;5.93;1.58;;;14.30;99.90;;;;;;6216115;23;20063;-69
2022/07/08 06:22:34;;;;;;;5.15;1.70;;;14.30;99.90;;;;;;6216069;23;20013;-70
2022/07/08 06:25:00;;;;;;;5.50;1.83;;;14.30;99.90;;;;;;6216212;23;20016;-69
2022/07/08 06:27:26;;;;;;;6.75;1.40;;;14.40;99.90;;;;;;6214884;23;20159;-69
2022/07/08 06:29:53;;;;;;;10.45;2.00;;;14.40;99.90;;;;;;6216073;23;20017;-69
2022/07/08 06:32:18;;;;;;;14.18;3.13;;;14.50;99.90;;;;;;6215693;23;20022;-68
2022/07/08 06:34:46;;;;;;;12.05;1.63;;;14.50;99.90;;;;;;6188832;23;20025;-70
2022/07/08 06:37:12;;;;;;;12.80;2.63;;;14.60;99.90;;;;;;6215927;23;20323;-69
2022/07/08 06:39:38;;;;;;;8.05;3.05;;;14.60;99.90;;;;;;6215987;23;20066;-69
2022/07/08 06:42:05;;;;;;;4.93;1.77;;;14.60;99.90;;;;;;6215878;23;20024;-70
2022/07/08 06:44:31;;;;;;;9.90;1.77;;;14.60;99.90;;;;;;6189069;23;20028;-68
2022/07/08 06:46:57;;;;;;;5.30;1.70;;;14.90;99.90;;;;;;6216018;23;20016;-70
2022/07/08 06:49:22;;;;;;;11.18;2.00;;;14.70;99.90;;;;;;6215896;23;20012;-69
2022/07/08 06:51:48;;;;;;;8.10;1.95;;;14.70;99.90;;;;;;6216002;23;20453;-71
2022/07/08 06:56:58;;;;;;;5.20;2.13;;;14.80;99.90;;;;;;6188770;23;20021;-70
2022/07/08 06:59:23;;;;;;;5.70;1.67;;;14.80;99.90;;;;;;6189421;23;20020;-70
2022/07/08 07:01:49;;;;;;;11.75;2.63;;;14.90;99.90;;;;;;6215899;23;20020;-69
2022/07/08 07:04:16;;;;;;;11.68;2.00;;;14.90;99.90;;;;;;6215820;23;20023;-70
2022/07/08 07:06:41;;;;;;;8.10;2.35;;;15.00;99.90;;;;;;6215873;23;20091;-70
2022/07/08 07:09:07;;;;;;;7.88;1.75;;;15.10;99.90;;;;;;6215889;23;20524;-69
2022/07/08 07:11:33;;;;;;;5.05;1.60;;;15.10;99.90;;;;;;6215922;23;20433;-69
2022/07/08 07:13:58;;;;;;;11.60;2.65;;;15.10;99.90;;;;;;6215765;23;20027;-69
2022/07/08 07:16:24;;;;;;;5.28;1.95;;;15.20;99.90;;;;;;6189193;23;20075;-70
2022/07/08 07:18:50;;;;;;;7.40;2.30;;;15.30;99.90;;;;;;6215831;23;20438;-69
2022/07/08 07:21:15;;;;;;;8.35;2.28;;;15.30;99.90;;;;;;6189110;23;20074;-69
2022/07/08 07:23:41;;;;;;;9.38;1.63;;;15.30;99.90;;;;;;6216178;23;20059;-70
2022/07/08 07:26:06;;;;;;;7.68;3.40;;;15.30;99.90;;;;;;6217463;23;20056;-69
2022/07/08 07:28:33;;;;;;;8.88;1.65;;;15.40;99.90;;;;;;6217301;23;20063;-69
2022/07/08 07:30:59;;;;;;;8.93;1.95;;;15.40;99.90;;;;;;6190092;23;20032;-70
2022/07/08 07:33:25;;;;;;;7.28;2.15;;;15.50;99.90;;;;;;6217752;23;20012;-70
2022/07/08 07:35:51;;;;;;;4.38;1.38;;;15.50;99.90;;;;;;6217720;23;20056;-70
2022/07/08 07:38:16;;;;;;;6.45;1.55;;;15.50;99.90;;;;;;6217969;23;20022;-70
2022/07/08 07:40:43;;;;;;;5.45;1.40;;;15.50;99.90;;;;;;6190790;23;20438;-70
2022/07/08 07:43:08;;;;;;;8.65;1.75;;;15.60;99.90;;;;;;6217422;23;20013;-70
2022/07/08 07:45:34;;;;;;;6.43;1.50;;;15.60;99.90;;;;;;6217634;23;20062;-69
2022/07/08 07:48:00;;;;;;;5.97;1.42;;;15.60;99.90;;;;;;6191246;23;20021;-69
2022/07/08 07:50:26;;;;;;;6.13;1.65;;;15.60;99.90;;;;;;6190633;23;20047;-71
2022/07/08 07:52:53;;;;;;;8.38;1.83;;;15.60;99.90;;;;;;6190588;23;20020;-70
2022/07/08 07:55:18;;;;;;;;;;;15.60;99.90;;;;;;6191583;23;20024;-71
2022/07/08 07:57:46;;;;;;;6.63;1.73;;;15.70;99.90;;;;;;6190288;23;20295;-70
2022/07/08 08:00:13;;;;;;;3.45;1.60;;;15.60;99.90;;;;;;6217630;23;20345;-69
2022/07/08 08:02:39;;;;;;;5.78;1.73;;;15.70;99.90;;;;;;6217524;23;20514;-69
2022/07/08 08:05:05;;;;;;;7.15;1.85;;;15.70;99.90;;;;;;6190254;23;20021;-70
2022/07/08 08:07:31;;;;;;;;;;;15.70;99.90;;;;;;6218124;23;20088;-69
2022/07/08 08:09:56;;;;;;;6.10;1.70;;;15.70;99.90;;;;;;6217794;23;20363;-71
2022/07/08 08:12:22;;;;;;;7.07;2.30;;;15.70;99.90;;;;;;6217440;23;20448;-70
2022/07/08 08:14:48;;;;;;;9.43;1.77;;;15.70;99.90;;;;;;6217511;23;20063;-70
2022/07/08 08:17:13;;;;;;;5.82;1.83;;;15.70;99.90;;;;;;6215599;23;20022;-70
2022/07/08 08:19:39;;;;;;;7.60;1.48;;;15.70;99.90;;;;;;6217342;23;20020;-70
2022/07/08 08:22:05;;;;;;;7.30;1.48;;;15.70;99.90;;;;;;6217240;23;20430;-71
2022/07/08 08:24:31;;;;;;;5.25;2.83;;;15.70;99.90;;;;;;6217235;23;20404;-69
2022/07/08 08:26:56;;;;;;;10.32;1.90;;;15.70;99.90;;;;;;6217249;23;20048;-71
2022/07/08 08:29:22;;;;;;;6.63;1.77;;;15.70;99.90;;;;;;6215967;23;20096;-70
2022/07/08 08:31:48;;;;;;;8.85;2.47;;;15.80;99.90;;;;;;6216775;23;20017;-70
2022/07/08 08:34:13;;;;;;;4.88;1.73;;;15.80;99.90;;;;;;6217034;23;20493;-70
2022/07/08 08:36:39;;;;;;;4.30;1.52;;;15.80;99.90;;;;;;6217098;23;20021;-70
2022/07/08 08:39:05;;;;;;;8.60;1.98;;;15.80;99.90;;;;;;6190559;23;20017;-70
2022/07/08 08:41:33;;;;;;;7.35;1.55;;;15.80;99.90;;;;;;6217088;23;20404;-70
2022/07/08 08:43:58;;;;;;;6.60;1.90;;;15.80;99.90;;;;;;6217090;23;20027;-70
2022/07/08 08:46:24;;;;;;;7.35;2.13;;;15.80;99.90;;;;;;6217103;23;20021;-71
2022/07/08 08:48:56;;;;;;;9.30;1.52;;;15.80;99.90;;;;;;6190636;23;20021;-69
2022/07/08 08:51:22;;;;;;;8.45;1.77;;;15.90;99.90;;;;;;6216931;23;20017;-70
2022/07/08 08:53:52;;;;;;;2.88;1.45;;;15.90;99.90;;;;;;6217090;23;20017;-70
2022/07/08 08:56:18;;;;;;;5.30;1.75;;;15.90;99.90;;;;;;6216876;23;20063;-70
2022/07/08 08:58:46;;;;;;;7.72;1.80;;;15.90;99.90;;;;;;6217000;23;20116;-70
2022/07/08 09:01:13;;;;;;;7.28;1.55;;;15.90;99.90;;;;;;6216887;23;20021;-69
2022/07/08 09:03:39;;;;;;;4.93;1.20;;;16.00;99.90;;;;;;6217043;23;20013;-70
2022/07/08 09:06:05;;;;;;;5.60;1.67;;;16.00;99.90;;;;;;6216867;23;20319;-70
2022/07/08 09:08:31;;;;;;;11.65;2.22;;;16.00;99.90;;;;;;6216913;23;20020;-70
2022/07/08 09:10:57;;;;;;;;;;;16.00;99.90;;;;;;6217404;23;20099;-70
2022/07/08 09:13:24;;;;;;;9.65;1.90;;;16.00;99.90;;;;;;6216813;23;19943;-71
2022/07/08 09:15:54;;;;;;;4.15;1.40;;;16.10;99.90;;;;;;6216814;23;20052;-70
2022/07/08 09:18:22;;;;;;;6.57;2.03;;;16.10;99.90;;;;;;6216848;23;20092;-70
2022/07/08 09:20:53;;;;;;;4.82;1.48;;;16.10;99.90;;;;;;6216728;23;20468;-70
2022/07/08 09:23:21;;;;;;;5.28;1.63;;;16.10;99.90;;;;;;6216667;23;20450;-71
2022/07/08 09:25:51;;;;;;;8.68;1.58;;;16.20;99.90;;;;;;6217057;23;20384;-70
2022/07/08 09:28:32;;;;;;;6.57;1.92;;;16.10;99.90;;;;;;6216667;23;20052;-70
2022/07/08 09:30:59;;;;;;;6.75;1.95;;;16.10;99.90;;;;;;6216760;23;20433;-70
2022/07/08 09:33:26;;;;;;;8.82;1.70;;;16.10;99.90;;;;;;6216722;23;20052;-70
2022/07/08 09:35:53;;;;;;;4.70;1.50;;;16.10;99.90;;;;;;6216552;23;20103;-70
2022/07/08 09:38:19;;;;;;;;;;;16.10;99.90;;;;;;6217216;23;20017;-70
2022/07/08 09:41:03;;;;;;;4.97;1.77;;;16.20;99.90;;;;;;6189811;23;19952;-71
2022/07/08 09:43:29;;;;;;;6.88;2.63;;;16.20;99.90;;;;;;6216415;23;20048;-70
2022/07/08 09:46:03;;;;;;;8.07;2.22;;;16.20;99.90;;;;;;6216123;23;20413;-69
2022/07/08 09:48:29;;;;;;;7.68;1.85;;;16.30;99.90;;;;;;6216476;23;20017;-70
2022/07/08 09:50:55;;;;;;;7.70;2.20;;;16.30;99.90;;;;;;6216533;23;20345;-70
2022/07/08 09:53:22;;;;;;;10.95;2.33;;;16.40;99.90;;;;;;6216509;23;20059;-70
2022/07/08 09:55:51;;;;;;;7.72;1.80;;;16.40;99.90;;;;;;6216293;23;20016;-70
2022/07/08 09:58:24;;;;;;;4.85;1.75;;;16.40;99.90;;;;;;6216448;23;20091;-70
2022/07/08 10:00:52;;;;;;;6.07;2.25;;;16.50;99.90;;;;;;6189878;23;20108;-71
2022/07/08 10:03:19;;;;;;;6.10;2.00;;;16.50;99.90;;;;;;6216416;23;20021;-70
2022/07/08 10:05:45;;;;;;;11.80;2.15;;;16.50;99.90;;;;;;6216266;23;20099;-70
2022/07/08 10:08:12;;;;;;;6.50;1.67;;;16.60;99.90;;;;;;6216355;23;20039;-69
2022/07/08 10:10:39;;;;;;;10.73;1.80;;;16.70;99.90;;;;;;6216279;23;20114;-70
2022/07/08 10:13:05;;;;;;;4.20;2.15;;;16.70;99.90;;;;;;6216157;23;20012;-70
2022/07/08 10:15:33;;;;;;;5.47;1.95;;;16.70;99.90;;;;;;6216319;23;20028;-70
2022/07/08 10:18:21;;;;;;;7.70;2.28;;;16.70;99.90;;;;;;6216151;23;20016;-70
2022/07/08 10:20:55;;;;;;;8.60;2.20;;;16.80;99.90;;;;;;6216096;23;20020;-70
2022/07/08 10:23:38;;;;;;;10.65;2.58;;;16.80;99.90;;;;;;6216176;23;20012;-70
2022/07/08 10:26:06;;;;;;;3.67;1.65;;;16.90;99.90;;;;;;6216054;23;20020;-70
2022/07/08 10:28:35;;;;;;;4.00;1.73;;;16.90;99.90;;;;;;6216246;23;20040;-69
2022/07/08 10:31:01;;;;;;;6.45;1.85;;;17.00;99.90;;;;;;6216102;23;20434;-70
2022/07/08 10:33:29;;;;;;;5.43;1.52;;;17.00;99.90;;;;;;6216187;23;20016;-70
2022/07/08 10:36:06;;;;;;;8.77;1.75;;;17.00;99.90;;;;;;6189245;23;20048;-71
2022/07/08 10:38:40;;;;;;;7.07;1.80;;;17.10;99.90;;;;;;6215821;23;20016;-70
2022/07/08 10:41:11;;;;;;;10.75;2.45;;;17.10;99.90;;;;;;6215990;23;20063;-71
2022/07/08 10:43:48;;;;;;;8.20;2.08;;;17.10;99.90;;;;;;6215979;23;20329;-70
2022/07/08 10:46:16;;;;;;;7.50;2.10;;;17.20;99.90;;;;;;6216039;23;20067;-69
2022/07/08 10:48:45;;;;;;;5.15;2.22;;;17.20;99.90;;;;;;6216086;23;20019;-70
2022/07/08 10:51:19;;;;;;;7.88;2.28;;;17.20;99.90;;;;;;6215923;23;20016;-70
2022/07/08 10:53:48;;;;;;;4.13;2.22;;;17.40;99.90;;;;;;6215804;23;20028;-71
2022/07/08 10:56:47;;;;;;;6.25;2.47;;;17.30;99.90;;;;;;6215849;23;20016;-70
2022/07/08 10:59:27;;;;;;;6.03;2.45;;;17.40;99.90;;;;;;6215926;23;20087;-70
2022/07/08 11:01:53;;;;;;;9.02;2.80;;;17.50;99.90;;;;;;6215819;23;20023;-71
2022/07/08 11:04:25;;;;;;;5.72;2.35;;;17.50;99.90;;;;;;6216234;23;20465;-69
2022/07/08 11:06:51;;;;;;;5.20;1.83;;;17.70;99.90;;;;;;6215785;23;20039;-70
2022/07/08 11:09:20;;;;;;;5.40;1.95;;;17.70;99.90;;;;;;6215737;23;20446;-71
2022/07/08 11:11:46;;;;;;;7.28;2.25;;;17.80;99.90;;;;;;6215894;23;20096;-70
2022/07/08 11:14:15;;;;;;;6.95;2.30;;;18.00;99.90;;;;;;6215977;23;20465;-72
2022/07/08 11:16:41;;;;;;;7.55;1.85;;;18.00;99.90;;;;;;6215855;23;20027;-71
2022/07/08 11:19:07;;;;;;;6.35;2.05;;;18.10;99.90;;;;;;6215885;23;20017;-71
2022/07/08 11:21:33;;;;;;;6.53;1.67;;;18.10;99.90;;;;;;6215698;23;20054;-70
2022/07/08 11:23:59;;;;;;;6.68;1.77;;;18.10;99.90;;;;;;6215740;23;20016;-70
2022/07/08 11:26:25;;;;;;;6.88;1.98;;;18.10;99.90;;;;;;6215742;23;20066;-70
2022/07/08 11:28:50;;;;;;;5.30;1.70;;;18.20;99.90;;;;;;6215826;23;20071;-70
2022/07/08 11:31:26;;;;;;;5.72;1.40;;;18.20;99.90;;;;;;6189328;23;20020;-69
2022/07/08 11:33:52;;;;;;;4.37;1.57;;;18.30;99.90;;;;;;6190062;23;20028;-69
2022/07/08 11:36:19;;;;;;;4.47;1.88;;;18.40;99.90;;;;;;6215655;23;20017;-70
2022/07/08 11:38:49;;;;;;;4.90;1.95;;;18.50;99.90;;;;;;6215568;23;20448;-71
2022/07/08 11:41:17;;;;;;;5.70;1.85;;;18.60;99.90;;;;;;6215665;23;20051;-70
2022/07/08 11:43:43;;;;;;;4.43;1.92;;;18.70;99.90;;;;;;6215668;23;20021;-71
2022/07/08 11:46:16;;;;;;;5.85;2.38;;;18.70;99.90;;;;;;6215745;23;20389;-70
2022/07/08 11:48:42;;;;;;;6.15;2.50;;;18.80;99.90;;;;;;6215710;23;20441;-71
2022/07/08 11:51:08;;;;;;;5.30;2.17;;;18.90;99.90;;;;;;6215671;23;20016;-70
2022/07/08 11:53:34;;;;;;;5.13;1.73;;;18.90;99.90;;;;;;6215657;23;20401;-71
2022/07/08 11:56:01;;;;;;;6.65;1.83;;;18.90;99.90;;;;;;6215635;23;20353;-70
2022/07/08 11:58:26;;;;;;;7.18;2.28;;;19.00;99.90;;;;;;6188771;23;20151;-71
2022/07/08 12:00:52;;;;;;;6.38;2.47;;;19.00;99.90;;;;;;6215602;23;20458;-70
2022/07/08 12:03:18;;;;;;;8.43;1.90;;;18.90;99.90;;;;;;6215602;23;20016;-70
2022/07/08 12:05:47;;;;;;;4.13;1.45;;;19.00;99.90;;;;;;6215680;23;20020;-71
2022/07/08 12:08:13;;;;;;;7.55;2.47;;;19.10;99.90;;;;;;6215613;23;20095;-70
2022/07/08 12:10:39;;;;;;;8.48;2.55;;;19.10;99.90;;;;;;6190443;23;20012;-70
2022/07/08 12:13:05;;;;;;;6.65;2.35;;;19.20;99.90;;;;;;6217128;23;20086;-71
2022/07/08 12:15:35;;;;;;;6.07;2.35;;;19.20;99.90;;;;;;6217517;23;20561;-70
2022/07/08 12:18:02;;;;;;;7.72;2.17;;;19.20;99.90;;;;;;6217374;23;20020;-70
2022/07/08 12:20:39;;;;;;;4.10;1.50;;;19.30;99.90;;;;;;6217337;23;20038;-71
2022/07/08 12:23:05;;;;;;;8.25;2.50;;;19.30;99.90;;;;;;6217226;23;20024;-70
2022/07/08 12:25:48;;;;;;;5.60;2.38;;;19.30;99.90;;;;;;6216698;23;20472;-70
2022/07/08 12:28:21;;;;;;;2.80;1.88;;;19.40;99.90;;;;;;6217077;23;20346;-70
2022/07/08 12:30:47;;;;;;;7.35;2.70;;;19.30;99.90;;;;;;6190794;23;20020;-70
2022/07/08 12:33:12;;;;;;;5.63;2.58;;;19.30;99.90;;;;;;6216826;23;20319;-70
2022/07/08 12:35:38;;;;;;;4.45;2.08;;;19.40;99.90;;;;;;6190641;23;20017;-70
2022/07/08 12:38:10;;;;;;;3.92;1.83;;;19.50;99.90;;;;;;6190836;23;20450;-70
2022/07/08 12:40:38;;;;;;;4.57;1.90;;;19.60;99.90;;;;;;6190344;23;20334;-70
2022/07/08 12:43:06;;;;;;;4.28;1.75;;;19.70;99.90;;;;;;6216840;23;20438;-71
2022/07/08 12:45:32;;;;;;;6.15;2.20;;;19.70;99.90;;;;;;6216995;23;20093;-70
2022/07/08 12:47:59;;;;;;;6.95;2.22;;;19.80;99.90;;;;;;6216709;23;20343;-70
2022/07/08 12:50:26;;;;;;;2.78;1.50;;;19.80;99.90;;;;;;6217381;23;20063;-71
2022/07/08 12:52:53;;;;;;;6.43;2.30;;;20.00;99.90;;;;;;6217079;23;20016;-70